sensor_id;sensor_type;location;lat;lon;timestamp;temperature;humidity
45283;DHT22;31023;44.994;1.796;2022-10-31T00:01:55;17.40;92.60
45283;DHT22;31023;44.994;1.796;2022-10-31T00:04:20;17.40;92.50
45283;DHT22;31023;44.994;1.796;2022-10-31T00:06:46;17.40;92.70
45283;DHT22;31023;44.994;1.796;2022-10-31T00:09:11;17.40;93.10
45283;DHT22;31023;44.994;1.796;2022-10-31T00:11:37;17.30;93.40
45283;DHT22;31023;44.994;1.796;2022-10-31T00:14:03;17.20;93.70
45283;DHT22;31023;44.994;1.796;2022-10-31T00:16:28;17.10;93.80
45283;DHT22;31023;44.994;1.796;2022-10-31T00:18:55;17.00;94.30
45283;DHT22;31023;44.994;1.796;2022-10-31T00:21:21;17.00;94.50
45283;DHT22;31023;44.994;1.796;2022-10-31T00:23:47;16.90;94.70
45283;DHT22;31023;44.994;1.796;2022-10-31T00:26:12;16.90;94.90
45283;DHT22;31023;44.994;1.796;2022-10-31T00:28:38;16.90;94.70
45283;DHT22;31023;44.994;1.796;2022-10-31T00:31:04;16.90;94.60
45283;DHT22;31023;44.994;1.796;2022-10-31T00:33:30;16.90;94.70
45283;DHT22;31023;44.994;1.796;2022-10-31T00:35:55;17.00;94.50
45283;DHT22;31023;44.994;1.796;2022-10-31T00:38:21;17.00;94.30
45283;DHT22;31023;44.994;1.796;2022-10-31T00:40:46;17.10;94.30
45283;DHT22;31023;44.994;1.796;2022-10-31T00:43:12;17.10;94.30
45283;DHT22;31023;44.994;1.796;2022-10-31T00:45:37;17.10;94.10
45283;DHT22;31023;44.994;1.796;2022-10-31T00:48:03;17.20;94.30
45283;DHT22;31023;44.994;1.796;2022-10-31T00:50:30;17.10;94.30
45283;DHT22;31023;44.994;1.796;2022-10-31T00:52:55;17.10;94.40
45283;DHT22;31023;44.994;1.796;2022-10-31T00:55:22;17.10;94.30
45283;DHT22;31023;44.994;1.796;2022-10-31T00:57:47;17.10;94.40
45283;DHT22;31023;44.994;1.796;2022-10-31T01:00:13;17.10;94.50
45283;DHT22;31023;44.994;1.796;2022-10-31T01:02:38;17.10;94.50
45283;DHT22;31023;44.994;1.796;2022-10-31T01:05:04;17.10;94.60
45283;DHT22;31023;44.994;1.796;2022-10-31T01:07:30;17.00;94.60
45283;DHT22;31023;44.994;1.796;2022-10-31T01:09:55;17.00;94.70
45283;DHT22;31023;44.994;1.796;2022-10-31T01:12:21;17.10;94.60
45283;DHT22;31023;44.994;1.796;2022-10-31T01:14:46;17.00;94.70
45283;DHT22;31023;44.994;1.796;2022-10-31T01:17:12;17.00;94.90
45283;DHT22;31023;44.994;1.796;2022-10-31T01:19:38;17.00;94.80
45283;DHT22;31023;44.994;1.796;2022-10-31T01:22:04;16.90;95.00
45283;DHT22;31023;44.994;1.796;2022-10-31T01:24:29;16.80;95.10
45283;DHT22;31023;44.994;1.796;2022-10-31T01:26:55;16.90;95.20
45283;DHT22;31023;44.994;1.796;2022-10-31T01:29:20;16.80;95.40
45283;DHT22;31023;44.994;1.796;2022-10-31T01:31:46;16.80;95.40
45283;DHT22;31023;44.994;1.796;2022-10-31T01:34:15;16.70;95.60
45283;DHT22;31023;44.994;1.796;2022-10-31T01:36:41;16.70;95.70
45283;DHT22;31023;44.994;1.796;2022-10-31T01:39:08;16.60;95.90
45283;DHT22;31023;44.994;1.796;2022-10-31T01:41:35;16.60;96.00
45283;DHT22;31023;44.994;1.796;2022-10-31T01:44:02;16.50;96.10
45283;DHT22;31023;44.994;1.796;2022-10-31T01:46:36;16.40;96.40
45283;DHT22;31023;44.994;1.796;2022-10-31T01:49:04;16.50;96.40
45283;DHT22;31023;44.994;1.796;2022-10-31T01:51:35;16.50;96.30
45283;DHT22;31023;44.994;1.796;2022-10-31T01:54:03;16.50;96.60
45283;DHT22;31023;44.994;1.796;2022-10-31T01:56:29;16.60;96.20
45283;DHT22;31023;44.994;1.796;2022-10-31T01:58:56;16.70;96.10
45283;DHT22;31023;44.994;1.796;2022-10-31T02:01:22;16.50;96.30
45283;DHT22;31023;44.994;1.796;2022-10-31T02:03:48;16.40;96.50
45283;DHT22;31023;44.994;1.796;2022-10-31T02:06:18;16.30;96.90
45283;DHT22;31023;44.994;1.796;2022-10-31T02:08:44;16.30;97.00
45283;DHT22;31023;44.994;1.796;2022-10-31T02:11:10;16.50;96.80
45283;DHT22;31023;44.994;1.796;2022-10-31T02:13:36;16.60;96.50
45283;DHT22;31023;44.994;1.796;2022-10-31T02:16:02;16.70;96.20
45283;DHT22;31023;44.994;1.796;2022-10-31T02:18:29;16.60;96.30
45283;DHT22;31023;44.994;1.796;2022-10-31T02:21:15;16.40;96.70
45283;DHT22;31023;44.994;1.796;2022-10-31T02:28:50;16.20;97.60
45283;DHT22;31023;44.994;1.796;2022-10-31T02:31:31;16.20;97.40
45283;DHT22;31023;44.994;1.796;2022-10-31T02:34:00;16.10;97.60
45283;DHT22;31023;44.994;1.796;2022-10-31T02:44:05;16.40;97.20
45283;DHT22;31023;44.994;1.796;2022-10-31T02:48:59;16.40;96.90
45283;DHT22;31023;44.994;1.796;2022-10-31T02:51:25;16.40;96.80
45283;DHT22;31023;44.994;1.796;2022-10-31T02:53:51;16.40;96.80
45283;DHT22;31023;44.994;1.796;2022-10-31T02:56:17;16.40;96.70
45283;DHT22;31023;44.994;1.796;2022-10-31T02:58:45;16.40;96.60
45283;DHT22;31023;44.994;1.796;2022-10-31T03:09:00;16.20;97.10
45283;DHT22;31023;44.994;1.796;2022-10-31T03:11:53;16.10;97.20
45283;DHT22;31023;44.994;1.796;2022-10-31T03:14:25;16.10;97.20
45283;DHT22;31023;44.994;1.796;2022-10-31T03:16:52;16.10;97.30
45283;DHT22;31023;44.994;1.796;2022-10-31T03:22:17;16.00;97.60
45283;DHT22;31023;44.994;1.796;2022-10-31T03:24:43;15.90;97.70
45283;DHT22;31023;44.994;1.796;2022-10-31T03:27:10;15.90;97.70
45283;DHT22;31023;44.994;1.796;2022-10-31T03:29:38;15.80;97.80
45283;DHT22;31023;44.994;1.796;2022-10-31T03:34:30;15.80;98.10
45283;DHT22;31023;44.994;1.796;2022-10-31T03:36:57;15.90;97.90
45283;DHT22;31023;44.994;1.796;2022-10-31T03:39:25;15.90;97.80
45283;DHT22;31023;44.994;1.796;2022-10-31T03:41:53;15.90;97.90
45283;DHT22;31023;44.994;1.796;2022-10-31T03:44:20;15.90;97.90
45283;DHT22;31023;44.994;1.796;2022-10-31T03:46:47;15.80;98.20
45283;DHT22;31023;44.994;1.796;2022-10-31T03:49:12;15.80;98.30
45283;DHT22;31023;44.994;1.796;2022-10-31T03:54:06;15.60;98.80
45283;DHT22;31023;44.994;1.796;2022-10-31T03:56:34;15.70;98.70
45283;DHT22;31023;44.994;1.796;2022-10-31T03:59:02;15.70;98.80
45283;DHT22;31023;44.994;1.796;2022-10-31T04:01:30;15.60;98.80
45283;DHT22;31023;44.994;1.796;2022-10-31T04:03:57;15.70;99.00
45283;DHT22;31023;44.994;1.796;2022-10-31T04:06:22;15.70;98.90
45283;DHT22;31023;44.994;1.796;2022-10-31T04:08:51;15.70;98.80
45283;DHT22;31023;44.994;1.796;2022-10-31T04:11:20;15.70;98.80
45283;DHT22;31023;44.994;1.796;2022-10-31T04:13:47;15.70;99.10
45283;DHT22;31023;44.994;1.796;2022-10-31T04:16:13;15.60;99.30
45283;DHT22;31023;44.994;1.796;2022-10-31T04:18:40;15.50;99.70
45283;DHT22;31023;44.994;1.796;2022-10-31T04:21:06;15.30;99.90
45283;DHT22;31023;44.994;1.796;2022-10-31T04:23:32;15.30;99.90
45283;DHT22;31023;44.994;1.796;2022-10-31T04:25:58;15.20;99.90
45283;DHT22;31023;44.994;1.796;2022-10-31T04:28:23;15.20;99.90
45283;DHT22;31023;44.994;1.796;2022-10-31T04:30:49;15.20;99.90
45283;DHT22;31023;44.994;1.796;2022-10-31T04:33:15;15.10;99.90
45283;DHT22;31023;44.994;1.796;2022-10-31T04:35:40;15.00;99.90
45283;DHT22;31023;44.994;1.796;2022-10-31T04:38:06;15.10;99.90
45283;DHT22;31023;44.994;1.796;2022-10-31T04:40:32;15.00;99.90
45283;DHT22;31023;44.994;1.796;2022-10-31T04:42:57;15.20;99.90
45283;DHT22;31023;44.994;1.796;2022-10-31T04:45:23;15.30;99.90
45283;DHT22;31023;44.994;1.796;2022-10-31T04:47:48;15.40;99.90
45283;DHT22;31023;44.994;1.796;2022-10-31T04:50:14;15.30;99.90
45283;DHT22;31023;44.994;1.796;2022-10-31T04:52:40;15.30;99.90
45283;DHT22;31023;44.994;1.796;2022-10-31T04:55:06;15.30;99.90
45283;DHT22;31023;44.994;1.796;2022-10-31T04:57:31;15.30;99.90
45283;DHT22;31023;44.994;1.796;2022-10-31T04:59:57;15.30;99.90
45283;DHT22;31023;44.994;1.796;2022-10-31T05:02:22;15.20;99.90
45283;DHT22;31023;44.994;1.796;2022-10-31T05:04:48;15.20;99.90
45283;DHT22;31023;44.994;1.796;2022-10-31T05:07:13;15.10;99.90
45283;DHT22;31023;44.994;1.796;2022-10-31T05:09:39;15.00;99.90
45283;DHT22;31023;44.994;1.796;2022-10-31T05:12:04;14.90;99.90
45283;DHT22;31023;44.994;1.796;2022-10-31T05:14:30;14.80;99.90
45283;DHT22;31023;44.994;1.796;2022-10-31T05:16:55;14.70;99.90
45283;DHT22;31023;44.994;1.796;2022-10-31T05:19:21;14.70;99.90
45283;DHT22;31023;44.994;1.796;2022-10-31T05:21:46;14.80;99.90
45283;DHT22;31023;44.994;1.796;2022-10-31T05:24:12;14.70;99.90
45283;DHT22;31023;44.994;1.796;2022-10-31T05:26:37;14.70;99.90
45283;DHT22;31023;44.994;1.796;2022-10-31T05:29:03;14.70;99.90
45283;DHT22;31023;44.994;1.796;2022-10-31T05:31:28;14.70;99.90
45283;DHT22;31023;44.994;1.796;2022-10-31T05:33:54;14.70;99.90
45283;DHT22;31023;44.994;1.796;2022-10-31T05:36:19;14.70;99.90
45283;DHT22;31023;44.994;1.796;2022-10-31T05:38:45;14.70;99.90
45283;DHT22;31023;44.994;1.796;2022-10-31T05:41:10;14.70;99.90
45283;DHT22;31023;44.994;1.796;2022-10-31T05:43:36;14.70;99.90
45283;DHT22;31023;44.994;1.796;2022-10-31T05:46:02;14.60;99.90
45283;DHT22;31023;44.994;1.796;2022-10-31T05:48:28;14.60;99.90
45283;DHT22;31023;44.994;1.796;2022-10-31T05:50:53;14.60;99.90
45283;DHT22;31023;44.994;1.796;2022-10-31T05:53:19;14.60;99.90
45283;DHT22;31023;44.994;1.796;2022-10-31T05:55:44;14.50;99.90
45283;DHT22;31023;44.994;1.796;2022-10-31T05:58:10;14.40;99.90
45283;DHT22;31023;44.994;1.796;2022-10-31T06:00:36;14.40;99.90
45283;DHT22;31023;44.994;1.796;2022-10-31T06:03:02;14.30;99.90
45283;DHT22;31023;44.994;1.796;2022-10-31T06:05:29;14.20;99.90
45283;DHT22;31023;44.994;1.796;2022-10-31T06:07:55;14.20;99.90
45283;DHT22;31023;44.994;1.796;2022-10-31T06:10:20;14.20;99.90
45283;DHT22;31023;44.994;1.796;2022-10-31T06:12:46;14.20;99.90
45283;DHT22;31023;44.994;1.796;2022-10-31T06:15:12;14.20;99.90
45283;DHT22;31023;44.994;1.796;2022-10-31T06:17:38;14.30;99.90
45283;DHT22;31023;44.994;1.796;2022-10-31T06:20:03;14.40;99.90
45283;DHT22;31023;44.994;1.796;2022-10-31T06:22:29;14.60;99.90
45283;DHT22;31023;44.994;1.796;2022-10-31T06:24:55;14.70;99.90
45283;DHT22;31023;44.994;1.796;2022-10-31T06:27:20;14.90;99.90
45283;DHT22;31023;44.994;1.796;2022-10-31T06:29:46;15.10;99.90
45283;DHT22;31023;44.994;1.796;2022-10-31T06:32:12;15.10;99.90
45283;DHT22;31023;44.994;1.796;2022-10-31T06:34:38;15.00;99.90
45283;DHT22;31023;44.994;1.796;2022-10-31T06:37:05;15.10;99.90
45283;DHT22;31023;44.994;1.796;2022-10-31T06:39:30;15.00;99.90
45283;DHT22;31023;44.994;1.796;2022-10-31T06:41:56;15.10;99.90
45283;DHT22;31023;44.994;1.796;2022-10-31T06:44:21;15.00;99.90
45283;DHT22;31023;44.994;1.796;2022-10-31T06:46:47;14.90;99.90
45283;DHT22;31023;44.994;1.796;2022-10-31T06:49:13;15.00;99.90
45283;DHT22;31023;44.994;1.796;2022-10-31T06:51:38;15.20;99.90
45283;DHT22;31023;44.994;1.796;2022-10-31T06:54:04;15.20;99.90
45283;DHT22;31023;44.994;1.796;2022-10-31T06:56:29;15.30;99.90
45283;DHT22;31023;44.994;1.796;2022-10-31T06:58:55;15.70;99.90
45283;DHT22;31023;44.994;1.796;2022-10-31T07:01:20;15.90;99.90
45283;DHT22;31023;44.994;1.796;2022-10-31T07:03:46;16.20;99.90
45283;DHT22;31023;44.994;1.796;2022-10-31T07:06:11;16.20;99.90
45283;DHT22;31023;44.994;1.796;2022-10-31T07:08:37;16.20;99.90
45283;DHT22;31023;44.994;1.796;2022-10-31T07:11:02;16.40;99.90
45283;DHT22;31023;44.994;1.796;2022-10-31T07:13:28;16.50;99.90
45283;DHT22;31023;44.994;1.796;2022-10-31T07:15:54;16.50;99.90
45283;DHT22;31023;44.994;1.796;2022-10-31T07:18:20;16.60;99.80
45283;DHT22;31023;44.994;1.796;2022-10-31T07:20:46;16.90;99.20
45283;DHT22;31023;44.994;1.796;2022-10-31T07:23:12;17.60;97.90
45283;DHT22;31023;44.994;1.796;2022-10-31T07:25:38;18.00;96.60
45283;DHT22;31023;44.994;1.796;2022-10-31T07:28:04;18.30;95.80
45283;DHT22;31023;44.994;1.796;2022-10-31T07:30:29;18.50;95.00
45283;DHT22;31023;44.994;1.796;2022-10-31T07:32:55;18.60;94.60
45283;DHT22;31023;44.994;1.796;2022-10-31T07:35:22;18.70;94.40
45283;DHT22;31023;44.994;1.796;2022-10-31T07:37:48;18.50;94.90
45283;DHT22;31023;44.994;1.796;2022-10-31T07:40:13;18.40;94.50
45283;DHT22;31023;44.994;1.796;2022-10-31T07:42:40;18.30;94.70
45283;DHT22;31023;44.994;1.796;2022-10-31T07:45:07;18.00;95.20
45283;DHT22;31023;44.994;1.796;2022-10-31T07:47:40;18.20;95.20
45283;DHT22;31023;44.994;1.796;2022-10-31T07:50:06;18.60;94.30
45283;DHT22;31023;44.994;1.796;2022-10-31T07:52:32;18.60;94.10
45283;DHT22;31023;44.994;1.796;2022-10-31T07:54:57;18.90;93.70
45283;DHT22;31023;44.994;1.796;2022-10-31T07:57:23;18.90;93.30
45283;DHT22;31023;44.994;1.796;2022-10-31T07:59:48;19.40;93.10
45283;DHT22;31023;44.994;1.796;2022-10-31T08:02:14;19.10;92.70
45283;DHT22;31023;44.994;1.796;2022-10-31T08:04:39;18.60;93.40
45283;DHT22;31023;44.994;1.796;2022-10-31T08:07:05;18.30;94.00
45283;DHT22;31023;44.994;1.796;2022-10-31T08:09:30;18.10;94.70
45283;DHT22;31023;44.994;1.796;2022-10-31T08:11:56;18.00;94.90
45283;DHT22;31023;44.994;1.796;2022-10-31T08:14:21;18.20;94.70
45283;DHT22;31023;44.994;1.796;2022-10-31T08:16:47;18.10;94.90
45283;DHT22;31023;44.994;1.796;2022-10-31T08:19:13;18.50;94.50
45283;DHT22;31023;44.994;1.796;2022-10-31T08:21:38;18.70;94.10
45283;DHT22;31023;44.994;1.796;2022-10-31T08:24:04;19.10;93.30
45283;DHT22;31023;44.994;1.796;2022-10-31T08:26:30;19.40;92.70
45283;DHT22;31023;44.994;1.796;2022-10-31T08:28:56;19.80;92.30
45283;DHT22;31023;44.994;1.796;2022-10-31T08:31:21;19.50;92.40
45283;DHT22;31023;44.994;1.796;2022-10-31T08:33:48;19.90;92.30
45283;DHT22;31023;44.994;1.796;2022-10-31T08:36:13;20.30;91.50
45283;DHT22;31023;44.994;1.796;2022-10-31T08:38:39;20.40;91.20
45283;DHT22;31023;44.994;1.796;2022-10-31T08:41:05;20.60;90.80
45283;DHT22;31023;44.994;1.796;2022-10-31T08:43:30;20.40;90.70
45283;DHT22;31023;44.994;1.796;2022-10-31T08:45:56;20.80;90.10
45283;DHT22;31023;44.994;1.796;2022-10-31T08:48:21;20.80;90.40
45283;DHT22;31023;44.994;1.796;2022-10-31T08:50:47;20.90;90.20
45283;DHT22;31023;44.994;1.796;2022-10-31T08:53:16;21.00;89.60
45283;DHT22;31023;44.994;1.796;2022-10-31T08:55:42;20.90;89.50
45283;DHT22;31023;44.994;1.796;2022-10-31T08:58:26;20.70;90.10
45283;DHT22;31023;44.994;1.796;2022-10-31T09:00:52;20.90;89.60
45283;DHT22;31023;44.994;1.796;2022-10-31T09:03:19;20.90;90.00
45283;DHT22;31023;44.994;1.796;2022-10-31T09:05:45;20.70;89.60
45283;DHT22;31023;44.994;1.796;2022-10-31T09:08:11;20.90;89.60
45283;DHT22;31023;44.994;1.796;2022-10-31T09:10:36;20.60;90.00
45283;DHT22;31023;44.994;1.796;2022-10-31T09:15:31;20.60;90.00
45283;DHT22;31023;44.994;1.796;2022-10-31T09:17:57;20.50;89.90
45283;DHT22;31023;44.994;1.796;2022-10-31T09:20:23;20.70;90.00
45283;DHT22;31023;44.994;1.796;2022-10-31T09:22:57;20.90;89.50
45283;DHT22;31023;44.994;1.796;2022-10-31T09:25:23;20.90;89.70
45283;DHT22;31023;44.994;1.796;2022-10-31T09:27:48;20.50;90.30
45283;DHT22;31023;44.994;1.796;2022-10-31T09:30:14;20.60;89.90
45283;DHT22;31023;44.994;1.796;2022-10-31T09:32:40;20.70;90.00
45283;DHT22;31023;44.994;1.796;2022-10-31T09:35:05;20.90;89.10
45283;DHT22;31023;44.994;1.796;2022-10-31T09:37:31;20.80;89.70
45283;DHT22;31023;44.994;1.796;2022-10-31T09:39:56;20.80;88.80
45283;DHT22;31023;44.994;1.796;2022-10-31T09:42:27;20.60;90.00
45283;DHT22;31023;44.994;1.796;2022-10-31T09:52:42;21.30;87.40
45283;DHT22;31023;44.994;1.796;2022-10-31T09:57:36;21.20;88.60
45283;DHT22;31023;44.994;1.796;2022-10-31T10:00:05;21.10;87.60
45283;DHT22;31023;44.994;1.796;2022-10-31T10:02:38;20.90;88.90
45283;DHT22;31023;44.994;1.796;2022-10-31T10:05:18;21.10;88.90
45283;DHT22;31023;44.994;1.796;2022-10-31T10:07:49;21.00;88.60
45283;DHT22;31023;44.994;1.796;2022-10-31T10:13:01;21.10;87.70
45283;DHT22;31023;44.994;1.796;2022-10-31T10:21:05;21.60;87.20
45283;DHT22;31023;44.994;1.796;2022-10-31T10:26:19;21.70;86.30
45283;DHT22;31023;44.994;1.796;2022-10-31T10:28:47;21.90;85.30
45283;DHT22;31023;44.994;1.796;2022-10-31T10:31:15;21.60;85.40
45283;DHT22;31023;44.994;1.796;2022-10-31T10:33:50;21.60;86.40
45283;DHT22;31023;44.994;1.796;2022-10-31T10:36:25;21.50;85.40
45283;DHT22;31023;44.994;1.796;2022-10-31T10:41:18;21.80;85.10
45283;DHT22;31023;44.994;1.796;2022-10-31T10:43:44;21.80;84.20
45283;DHT22;31023;44.994;1.796;2022-10-31T10:48:57;21.90;83.90
45283;DHT22;31023;44.994;1.796;2022-10-31T10:54:01;21.90;84.50
45283;DHT22;31023;44.994;1.796;2022-10-31T10:59:13;22.00;84.70
45283;DHT22;31023;44.994;1.796;2022-10-31T11:01:41;22.10;84.30
45283;DHT22;31023;44.994;1.796;2022-10-31T11:04:29;22.00;82.60
45283;DHT22;31023;44.994;1.796;2022-10-31T11:06:56;22.00;83.80
45283;DHT22;31023;44.994;1.796;2022-10-31T11:09:22;22.00;84.20
45283;DHT22;31023;44.994;1.796;2022-10-31T11:11:47;22.00;85.40
45283;DHT22;31023;44.994;1.796;2022-10-31T11:14:13;21.90;83.40
45283;DHT22;31023;44.994;1.796;2022-10-31T11:16:44;21.90;83.30
45283;DHT22;31023;44.994;1.796;2022-10-31T11:19:16;22.00;82.70
45283;DHT22;31023;44.994;1.796;2022-10-31T11:21:42;21.90;83.70
45283;DHT22;31023;44.994;1.796;2022-10-31T11:26:37;21.90;82.90
45283;DHT22;31023;44.994;1.796;2022-10-31T11:29:04;22.00;83.30
45283;DHT22;31023;44.994;1.796;2022-10-31T11:31:31;21.90;83.40
45283;DHT22;31023;44.994;1.796;2022-10-31T11:33:59;21.90;84.50
45283;DHT22;31023;44.994;1.796;2022-10-31T11:36:30;21.90;83.40
45283;DHT22;31023;44.994;1.796;2022-10-31T11:38:56;22.00;81.60
45283;DHT22;31023;44.994;1.796;2022-10-31T11:44:17;22.20;80.50
45283;DHT22;31023;44.994;1.796;2022-10-31T11:46:47;22.40;81.40
45283;DHT22;31023;44.994;1.796;2022-10-31T11:51:52;22.30;80.20
45283;DHT22;31023;44.994;1.796;2022-10-31T11:54:20;22.30;80.50
45283;DHT22;31023;44.994;1.796;2022-10-31T11:56:47;22.50;81.40
45283;DHT22;31023;44.994;1.796;2022-10-31T11:59:25;22.90;79.30
45283;DHT22;31023;44.994;1.796;2022-10-31T12:01:52;23.00;78.40
45283;DHT22;31023;44.994;1.796;2022-10-31T12:04:18;22.90;78.20
45283;DHT22;31023;44.994;1.796;2022-10-31T12:06:44;22.80;77.90
45283;DHT22;31023;44.994;1.796;2022-10-31T12:11:52;22.70;78.00
45283;DHT22;31023;44.994;1.796;2022-10-31T12:14:30;22.60;78.70
45283;DHT22;31023;44.994;1.796;2022-10-31T12:19:33;22.50;78.40
45283;DHT22;31023;44.994;1.796;2022-10-31T12:32:20;22.50;77.90
45283;DHT22;31023;44.994;1.796;2022-10-31T12:37:15;22.40;77.60
45283;DHT22;31023;44.994;1.796;2022-10-31T12:45:12;22.40;77.80
45283;DHT22;31023;44.994;1.796;2022-10-31T12:47:55;22.40;77.90
45283;DHT22;31023;44.994;1.796;2022-10-31T12:50:25;22.40;77.90
45283;DHT22;31023;44.994;1.796;2022-10-31T12:53:00;22.50;77.40
45283;DHT22;31023;44.994;1.796;2022-10-31T12:58:01;22.60;77.00
45283;DHT22;31023;44.994;1.796;2022-10-31T13:00:28;22.70;76.90
45283;DHT22;31023;44.994;1.796;2022-10-31T13:03:03;22.70;77.40
45283;DHT22;31023;44.994;1.796;2022-10-31T13:05:39;22.70;77.80
45283;DHT22;31023;44.994;1.796;2022-10-31T13:08:06;22.70;76.60
45283;DHT22;31023;44.994;1.796;2022-10-31T13:10:37;22.80;76.70
45283;DHT22;31023;44.994;1.796;2022-10-31T13:13:06;22.80;75.90
45283;DHT22;31023;44.994;1.796;2022-10-31T13:15:35;22.90;75.70
45283;DHT22;31023;44.994;1.796;2022-10-31T13:18:09;22.90;75.70
45283;DHT22;31023;44.994;1.796;2022-10-31T13:20:40;22.90;76.00
45283;DHT22;31023;44.994;1.796;2022-10-31T13:23:11;22.90;75.20
45283;DHT22;31023;44.994;1.796;2022-10-31T13:25:42;23.00;75.30
45283;DHT22;31023;44.994;1.796;2022-10-31T13:28:12;22.90;76.50
45283;DHT22;31023;44.994;1.796;2022-10-31T13:30:46;22.80;75.80
45283;DHT22;31023;44.994;1.796;2022-10-31T13:33:20;22.70;76.70
45283;DHT22;31023;44.994;1.796;2022-10-31T13:36:34;22.70;76.00
45283;DHT22;31023;44.994;1.796;2022-10-31T13:38:41;22.70;75.90
45283;DHT22;31023;44.994;1.796;2022-10-31T13:41:26;22.80;75.90
45283;DHT22;31023;44.994;1.796;2022-10-31T13:48:56;22.70;76.20
45283;DHT22;31023;44.994;1.796;2022-10-31T13:51:26;22.80;76.30
45283;DHT22;31023;44.994;1.796;2022-10-31T13:56:26;22.70;76.50
45283;DHT22;31023;44.994;1.796;2022-10-31T13:59:04;22.70;76.60
45283;DHT22;31023;44.994;1.796;2022-10-31T14:01:31;22.80;76.50
45283;DHT22;31023;44.994;1.796;2022-10-31T14:03:58;22.90;76.10
45283;DHT22;31023;44.994;1.796;2022-10-31T14:06:34;22.80;76.10
45283;DHT22;31023;44.994;1.796;2022-10-31T14:09:00;22.80;76.50
45283;DHT22;31023;44.994;1.796;2022-10-31T14:11:26;22.60;76.50
45283;DHT22;31023;44.994;1.796;2022-10-31T14:13:53;22.60;76.50
45283;DHT22;31023;44.994;1.796;2022-10-31T14:16:27;22.50;77.20
45283;DHT22;31023;44.994;1.796;2022-10-31T14:18:58;22.50;76.90
45283;DHT22;31023;44.994;1.796;2022-10-31T14:23:50;22.40;76.80
45283;DHT22;31023;44.994;1.796;2022-10-31T14:28:55;22.30;76.70
45283;DHT22;31023;44.994;1.796;2022-10-31T14:31:37;22.30;76.60
45283;DHT22;31023;44.994;1.796;2022-10-31T14:39:17;22.30;76.20
45283;DHT22;31023;44.994;1.796;2022-10-31T14:41:51;22.30;76.40
45283;DHT22;31023;44.994;1.796;2022-10-31T14:44:41;22.20;76.10
45283;DHT22;31023;44.994;1.796;2022-10-31T14:52:05;22.20;76.70
45283;DHT22;31023;44.994;1.796;2022-10-31T14:54:33;22.20;77.40
45283;DHT22;31023;44.994;1.796;2022-10-31T14:57:06;22.20;77.40
45283;DHT22;31023;44.994;1.796;2022-10-31T14:59:35;22.10;77.10
45283;DHT22;31023;44.994;1.796;2022-10-31T15:02:07;22.00;77.70
45283;DHT22;31023;44.994;1.796;2022-10-31T15:04:35;21.90;78.40
45283;DHT22;31023;44.994;1.796;2022-10-31T15:07:11;21.90;78.30
45283;DHT22;31023;44.994;1.796;2022-10-31T15:09:37;21.80;79.20
45283;DHT22;31023;44.994;1.796;2022-10-31T15:12:24;21.80;79.20
45283;DHT22;31023;44.994;1.796;2022-10-31T15:14:50;21.60;79.80
45283;DHT22;31023;44.994;1.796;2022-10-31T15:17:16;21.50;80.30
45283;DHT22;31023;44.994;1.796;2022-10-31T15:19:42;21.60;79.90
45283;DHT22;31023;44.994;1.796;2022-10-31T15:22:29;21.50;80.40
45283;DHT22;31023;44.994;1.796;2022-10-31T15:24:54;21.60;80.10
45283;DHT22;31023;44.994;1.796;2022-10-31T15:27:21;21.50;81.10
45283;DHT22;31023;44.994;1.796;2022-10-31T15:29:49;21.40;80.80
45283;DHT22;31023;44.994;1.796;2022-10-31T15:32:25;21.50;80.20
45283;DHT22;31023;44.994;1.796;2022-10-31T15:34:51;21.40;80.70
45283;DHT22;31023;44.994;1.796;2022-10-31T15:37:18;21.40;80.80
45283;DHT22;31023;44.994;1.796;2022-10-31T15:39:45;21.30;81.30
45283;DHT22;31023;44.994;1.796;2022-10-31T15:42:18;21.30;80.50
45283;DHT22;31023;44.994;1.796;2022-10-31T15:44:44;21.30;80.70
45283;DHT22;31023;44.994;1.796;2022-10-31T15:47:15;21.30;81.40
45283;DHT22;31023;44.994;1.796;2022-10-31T15:49:41;21.30;80.80
45283;DHT22;31023;44.994;1.796;2022-10-31T15:54:48;21.30;80.10
45283;DHT22;31023;44.994;1.796;2022-10-31T15:57:15;21.30;80.10
45283;DHT22;31023;44.994;1.796;2022-10-31T15:59:45;21.30;80.50
45283;DHT22;31023;44.994;1.796;2022-10-31T16:02:12;21.30;81.40
45283;DHT22;31023;44.994;1.796;2022-10-31T16:04:47;21.20;80.70
45283;DHT22;31023;44.994;1.796;2022-10-31T16:07:14;21.10;81.90
45283;DHT22;31023;44.994;1.796;2022-10-31T16:09:55;21.10;81.70
45283;DHT22;31023;44.994;1.796;2022-10-31T16:12:22;21.10;81.80
45283;DHT22;31023;44.994;1.796;2022-10-31T16:14:49;21.10;82.10
45283;DHT22;31023;44.994;1.796;2022-10-31T16:17:16;21.10;82.90
45283;DHT22;31023;44.994;1.796;2022-10-31T16:19:47;20.90;84.00
45283;DHT22;31023;44.994;1.796;2022-10-31T16:22:18;20.60;86.20
45283;DHT22;31023;44.994;1.796;2022-10-31T16:24:46;20.50;88.60
45283;DHT22;31023;44.994;1.796;2022-10-31T16:27:20;20.40;90.20
45283;DHT22;31023;44.994;1.796;2022-10-31T16:29:50;20.30;91.80
45283;DHT22;31023;44.994;1.796;2022-10-31T16:35:01;19.80;95.20
45283;DHT22;31023;44.994;1.796;2022-10-31T16:37:26;19.30;98.60
45283;DHT22;31023;44.994;1.796;2022-10-31T16:39:52;19.10;99.90
45283;DHT22;31023;44.994;1.796;2022-10-31T16:42:17;19.30;99.90
45283;DHT22;31023;44.994;1.796;2022-10-31T16:44:43;19.40;99.90
45283;DHT22;31023;44.994;1.796;2022-10-31T16:47:11;19.30;99.90
45283;DHT22;31023;44.994;1.796;2022-10-31T16:49:38;18.90;99.90
45283;DHT22;31023;44.994;1.796;2022-10-31T16:52:03;18.80;99.90
45283;DHT22;31023;44.994;1.796;2022-10-31T16:54:29;18.20;99.90
45283;DHT22;31023;44.994;1.796;2022-10-31T16:56:54;17.60;99.90
45283;DHT22;31023;44.994;1.796;2022-10-31T16:59:20;17.20;99.90
45283;DHT22;31023;44.994;1.796;2022-10-31T17:01:47;17.00;99.90
45283;DHT22;31023;44.994;1.796;2022-10-31T17:04:13;17.10;99.90
45283;DHT22;31023;44.994;1.796;2022-10-31T17:06:39;17.20;99.90
45283;DHT22;31023;44.994;1.796;2022-10-31T17:09:05;17.10;99.90
45283;DHT22;31023;44.994;1.796;2022-10-31T17:11:31;16.90;99.90
45283;DHT22;31023;44.994;1.796;2022-10-31T17:13:56;16.90;99.90
45283;DHT22;31023;44.994;1.796;2022-10-31T17:16:22;17.00;99.90
45283;DHT22;31023;44.994;1.796;2022-10-31T17:18:48;17.10;99.90
45283;DHT22;31023;44.994;1.796;2022-10-31T17:21:32;17.10;99.90
45283;DHT22;31023;44.994;1.796;2022-10-31T17:23:57;16.90;99.90
45283;DHT22;31023;44.994;1.796;2022-10-31T17:26:23;16.90;99.90
45283;DHT22;31023;44.994;1.796;2022-10-31T17:28:48;16.80;99.90
45283;DHT22;31023;44.994;1.796;2022-10-31T17:31:21;16.70;99.90
45283;DHT22;31023;44.994;1.796;2022-10-31T17:33:47;16.80;99.90
45283;DHT22;31023;44.994;1.796;2022-10-31T17:36:13;17.00;99.90
45283;DHT22;31023;44.994;1.796;2022-10-31T17:38:39;17.00;99.90
45283;DHT22;31023;44.994;1.796;2022-10-31T17:41:05;17.10;99.90